Strona główna
METAR-TAF:

METAR-TAF

Lotnisko :

Ortonville Municipal Airport (Martinson Field)

Ortonville, Minnesota, Stany Zjednoczone

Szerokość geograficzna: 45-18-20N, Długość geograficzna: 096-25-28W, wysokość: 335 m

Aktualna obserwacja pogody

Raport powstał 15 minut temu, godzina 18:15 UTC
Wiatr 6 kt od północ w porywach dochodzący do 09 kt
Temperatura 11°C
Wilgotność 58%
Ciśnienie 1004 hPa
Widzialność: 16.1 km
Przerywane chmury na wysokości 3100 ft

METAR: KVVV 111815Z AUTO 01006G09KT 10SM BKN031 11/03 A2965 RMK AO2

czas: 13:30 (18:30 UTC)


TAF: brakujący

Obserwacja i prognoza pogody dla ponad 4000 lotnisk (raport METAR i TAF).

Dostępne stacje oznaczono żółtymi i czerwonymi punktami na mapie.

Najedź kursorem aby zobaczyć nazwę stacji.

Kliknij aby zobaczyć obserwacje i prognozy pogody.

Aby zmienić mapę: kliknij na zielony przycisk z czarnym krzyżykiem, aby powiększyć; na zielony przycisk z myślnikiem, aby pomniejszyć; na zielone strzałki, aby przejść do map sąsiednich.


METAR-TAF: